Time;durP1;ratioP1;P1;durP2;ratioP2;P2;SDS_P1;SDS_P2;PMS_P1;PMS_P2;Temp;Humidity;BMP_temperature;BMP_pressure;BME280_temperature;BME280_humidity;BME280_pressure;Samples;Min_cycle;Max_cycle;Signal;HPM_P1;HPM_P2
2023/12/31 00:00:53;;;;;;;;;102.25;86.00;;;;;2.97;100.00;99801.25;6276297;20;3700307;-46
2023/12/31 00:03:22;;;;;;;;;120.00;94.33;;;;;3.08;100.00;99793.84;6272735;20;3698164;-46
2023/12/31 00:05:53;;;;;;;;;128.75;110.75;;;;;2.99;100.00;99795.00;6270845;20;3719500;-45
2023/12/31 00:08:24;;;;;;;;;155.50;125.00;;;;;2.93;100.00;99800.47;6306124;20;4491905;-45
2023/12/31 00:10:54;;;;;;;;;142.50;106.75;;;;;2.49;100.00;99797.28;6276070;20;4488755;-45
2023/12/31 00:13:25;;;;;;;;;134.50;107.00;;;;;2.57;100.00;99794.41;6304627;20;4478348;-46
2023/12/31 00:15:55;;;;;;;;;124.75;105.00;;;;;2.42;100.00;99804.53;6272335;20;4485635;-45
2023/12/31 00:18:25;;;;;;;;;124.33;98.00;;;;;2.57;100.00;99792.63;6275126;20;3693950;-45
2023/12/31 00:20:55;;;;;;;;;112.67;87.33;;;;;2.53;100.00;99795.44;6273764;20;3690902;-46
2023/12/31 00:23:25;;;;;;;;;103.33;92.67;;;;;2.59;100.00;99788.16;6272840;20;3682523;-45
2023/12/31 00:25:55;;;;;;;;;102.33;82.67;;;;;2.38;100.00;99786.97;6272012;20;3691941;-45
2023/12/31 00:28:24;;;;;;;;;99.33;78.33;;;;;2.27;100.00;99791.69;6274741;20;3677128;-47
2023/12/31 00:30:54;;;;;;;;;103.00;82.67;;;;;2.41;100.00;99792.16;6272330;20;3693969;-46
2023/12/31 00:33:24;;;;;;;;;102.67;84.67;;;;;2.31;100.00;99784.50;6273414;20;3675212;-46
2023/12/31 00:35:54;;;;;;;;;99.67;81.00;;;;;2.52;100.00;99783.06;6271969;20;3669012;-46
2023/12/31 00:38:25;;;;;;;;;107.25;87.75;;;;;2.45;100.00;99787.69;6273802;20;3703367;-47
2023/12/31 00:40:54;;;;;;;;;107.00;92.67;;;;;2.52;100.00;99783.06;6272170;20;3685644;-45
2023/12/31 00:43:24;;;;;;;;;103.75;87.75;;;;;2.33;100.00;99778.25;6274557;20;4462845;-45
2023/12/31 00:45:54;;;;;;;;;103.67;83.00;;;;;2.41;100.00;99780.72;6270662;20;3697217;-46
2023/12/31 00:48:23;;;;;;;;;94.33;77.00;;;;;2.20;100.00;99780.34;6272842;20;3654397;-45
2023/12/31 00:50:53;;;;;;;;;98.00;77.67;;;;;2.26;100.00;99787.28;6304039;20;3680458;-46
2023/12/31 00:53:23;;;;;;;;;102.67;80.33;;;;;2.14;100.00;99782.31;6270801;20;3704436;-49
2023/12/31 00:55:52;;;;;;;;;93.33;70.00;;;;;2.16;100.00;99785.78;6271610;20;3660699;-46
2023/12/31 00:58:22;;;;;;;;;96.00;72.50;;;;;2.06;100.00;99781.63;6303606;20;3530538;-46
2023/12/31 01:00:52;;;;;;;;;94.67;74.00;;;;;2.45;100.00;99782.38;6303477;20;3643005;-46
2023/12/31 01:03:21;;;;;;;;;95.67;71.33;;;;;2.28;100.00;99781.94;6303471;20;3662798;-45
2023/12/31 01:05:51;;;;;;;;;99.33;79.67;;;;;2.75;100.00;99775.34;6301821;20;3683631;-45
2023/12/31 01:08:20;;;;;;;;;96.33;77.67;;;;;2.03;100.00;99784.34;6273627;20;3666998;-45
2023/12/31 01:10:50;;;;;;;;;105.67;87.00;;;;;2.52;100.00;99777.75;6272325;20;3683638;-46
2023/12/31 01:13:20;;;;;;;;;104.33;86.00;;;;;1.93;100.00;99774.00;6270734;20;3694106;-45
2023/12/31 01:15:50;;;;;;;;;108.00;85.33;;;;;2.05;100.00;99782.53;6271890;20;3687867;-46
2023/12/31 01:18:20;;;;;;;;;116.67;93.67;;;;;2.11;100.00;99783.25;6269727;20;3676452;-45
2023/12/31 01:20:50;;;;;;;;;111.33;92.67;;;;;2.14;100.00;99777.00;6272663;20;3687860;-49
2023/12/31 01:23:20;;;;;;;;;98.33;82.33;;;;;2.24;100.00;99773.22;6270391;20;3667987;-46
2023/12/31 01:25:49;;;;;;;;;102.33;79.67;;;;;1.92;100.00;99774.91;6267679;20;3691968;-45
2023/12/31 01:28:19;;;;;;;;;101.00;81.00;;;;;2.15;100.00;99776.09;6273061;20;3695186;-45
2023/12/31 01:30:49;;;;;;;;;100.33;82.33;;;;;2.19;100.00;99773.34;6269102;20;3688809;-45
2023/12/31 01:33:19;;;;;;;;;105.33;92.00;;;;;2.30;100.00;99773.03;6272825;20;3688820;-45
2023/12/31 01:35:48;;;;;;;;;103.00;86.00;;;;;2.34;100.00;99773.81;6270335;20;3670121;-45
2023/12/31 01:38:18;;;;;;;;;95.33;73.33;;;;;2.62;100.00;99771.31;6278166;20;3660686;-45
2023/12/31 01:40:55;;;;;;;;;103.67;83.33;;;;;2.40;100.00;99763.94;6277052;20;3695219;-46
2023/12/31 01:43:24;;;;;;;;;101.67;81.33;;;;;2.31;100.00;99766.81;6277119;20;3689862;-47
2023/12/31 01:45:54;;;;;;;;;101.33;84.00;;;;;2.39;100.00;99774.56;6276215;20;3672113;-45
2023/12/31 01:48:24;;;;;;;;;91.00;66.67;;;;;2.36;100.00;99770.22;6274047;20;3654465;-47
2023/12/31 01:50:54;;;;;;;;;100.00;79.00;;;;;2.43;100.00;99768.28;6309630;20;3693081;-46
2023/12/31 01:53:26;;;;;;;;;93.00;71.00;;;;;2.35;100.00;99763.19;6272635;20;3659698;-46
2023/12/31 01:55:57;;;;;;;;;101.67;75.33;;;;;2.42;100.00;99754.19;6308198;20;3689850;-48
2023/12/31 01:58:27;;;;;;;;;106.33;84.00;;;;;2.27;100.00;99759.88;6275376;20;3690960;-47
2023/12/31 02:00:57;;;;;;;;;100.33;71.67;;;;;2.46;100.00;99747.00;6278003;20;3681666;-47
2023/12/31 02:03:29;;;;;;;;;97.33;78.33;;;;;2.53;100.00;99751.22;6274187;20;3673254;-45
2023/12/31 02:06:00;;;;;;;;;92.33;68.67;;;;;2.63;100.00;99751.81;6275528;20;3654436;-47
2023/12/31 02:08:29;;;;;;;;;97.00;74.67;;;;;2.42;100.00;99751.53;6275635;20;3669053;-46
2023/12/31 02:10:59;;;;;;;;;95.67;71.00;;;;;2.10;100.00;99754.16;6309467;20;3656542;-46
2023/12/31 02:13:29;;;;;;;;;95.00;71.33;;;;;2.12;100.00;99755.84;6306530;20;3644121;-45
2023/12/31 02:15:58;;;;;;;;;96.33;74.33;;;;;1.87;100.00;99755.63;6308721;20;3644108;-46
2023/12/31 02:18:29;;;;;;;;;98.33;75.67;;;;;1.92;100.00;99763.44;6309834;20;3669036;-45
2023/12/31 02:20:58;;;;;;;;;99.67;74.00;;;;;1.89;100.00;99756.44;6276391;20;3675409;-45
2023/12/31 02:23:28;;;;;;;;;99.67;73.33;;;;;2.07;100.00;99759.53;6277339;20;3679495;-46
2023/12/31 02:26:11;;;;;;;;;97.00;75.00;;;;;1.74;100.00;99756.84;6278611;20;3655483;-46
2023/12/31 02:28:41;;;;;;;;;90.67;70.33;;;;;1.53;100.00;99751.16;6306834;20;3644099;-45
2023/12/31 02:31:11;;;;;;;;;88.67;70.00;;;;;1.29;100.00;99744.66;6307937;20;2876471;-45
2023/12/31 02:33:40;;;;;;;;;91.67;70.00;;;;;1.60;100.00;99749.22;6306419;20;3636749;-46
2023/12/31 02:36:10;;;;;;;;;96.00;71.33;;;;;1.77;100.00;99746.16;6308071;20;3658016;-46
2023/12/31 02:38:40;;;;;;;;;92.00;69.33;;;;;1.33;100.00;99748.09;6307676;20;3656540;-47
2023/12/31 02:41:09;;;;;;;;;94.00;68.67;;;;;1.41;100.00;99748.78;6309813;20;3647154;-47
2023/12/31 02:43:39;;;;;;;;;96.00;70.67;;;;;1.44;100.00;99742.56;6306149;20;3663747;-45
2023/12/31 02:46:09;;;;;;;;;92.67;70.67;;;;;1.63;100.00;99742.97;6308222;20;3652455;-45
2023/12/31 02:48:39;;;;;;;;;98.00;78.33;;;;;1.38;100.00;99734.78;6308231;20;3664934;-44
2023/12/31 02:51:09;;;;;;;;;117.67;96.33;;;;;1.45;100.00;99734.59;6274495;20;3679468;-45
2023/12/31 02:53:39;;;;;;;;;114.67;100.00;;;;;1.51;100.00;99737.09;6275570;20;3698179;-45
2023/12/31 02:56:08;;;;;;;;;114.67;92.00;;;;;1.83;100.00;99738.06;6276536;20;3687740;-46
2023/12/31 02:58:38;;;;;;;;;115.00;94.33;;;;;1.83;100.00;99730.13;6275028;20;3697213;-45
2023/12/31 03:01:08;;;;;;;;;104.00;88.67;;;;;2.02;100.00;99729.66;6276453;20;3677338;-45
2023/12/31 03:03:38;;;;;;;;;115.67;97.67;;;;;1.35;100.00;99727.78;6273709;20;3691033;-45
2023/12/31 03:06:08;;;;;;;;;129.25;104.00;;;;;1.60;100.00;99730.69;6274412;20;3709747;-45
2023/12/31 03:08:38;;;;;;;;;111.00;87.00;;;;;1.87;100.00;99730.91;6274666;20;3700342;-45
2023/12/31 03:11:09;;;;;;;;;106.00;87.00;;;;;2.06;100.00;99733.97;6276494;20;3700272;-45
2023/12/31 03:13:38;;;;;;;;;84.00;61.33;;;;;1.96;100.00;99726.25;6275593;20;2879514;-45
2023/12/31 03:16:07;;;;;;;;;92.67;72.67;;;;;2.46;100.00;99732.91;6307736;20;3648297;-46
2023/12/31 03:18:37;;;;;;;;;100.33;83.33;;;;;2.61;100.00;99729.81;6307805;20;3681544;-46
2023/12/31 03:21:17;;;;;;;;;92.00;70.00;;;;;2.46;100.00;99725.81;6274951;20;3673327;-45
2023/12/31 03:23:47;;;;;;;;;102.33;82.67;;;;;2.64;100.00;99735.88;6276166;20;3695102;-46
2023/12/31 03:26:17;;;;;;;;;101.00;84.67;;;;;2.42;100.00;99732.97;6274717;20;3680463;-45
2023/12/31 03:28:46;;;;;;;;;90.67;69.67;;;;;1.98;100.00;99735.03;6273548;20;3653463;-47
2023/12/31 03:31:14;;;;;;;;;59.50;41.00;;;;;1.60;100.00;99737.75;6306065;20;2855564;-45
2023/12/31 03:33:46;;;;;;;;;89.67;68.67;;;;;1.74;100.00;99733.03;6270367;20;3658634;-46
2023/12/31 03:36:16;;;;;;;;;87.33;65.67;;;;;1.95;100.00;99724.53;6307336;20;3657574;-45
2023/12/31 03:38:44;;;;;;;;;81.50;67.00;;;;;1.96;100.00;99723.59;6306835;20;2863814;-48
2023/12/31 03:41:14;;;;;;;;;84.00;64.33;;;;;2.02;100.00;99722.56;6276284;20;3635832;-45
2023/12/31 03:43:43;;;;;;;;;89.33;66.33;;;;;2.20;100.00;99705.31;6306069;20;3653365;-45
2023/12/31 03:46:13;;;;;;;;;93.33;70.00;;;;;2.32;100.00;99712.94;6306824;20;3651319;-46
2023/12/31 03:48:43;;;;;;;;;92.67;67.33;;;;;2.40;100.00;99715.38;6272266;20;3655578;-44
2023/12/31 03:51:13;;;;;;;;;85.67;64.33;;;;;2.23;100.00;99713.19;6305534;20;3637741;-45
2023/12/31 03:53:43;;;;;;;;;89.67;66.00;;;;;2.07;100.00;99725.09;6305715;20;3657588;-45
2023/12/31 03:56:13;;;;;;;;;87.33;66.33;;;;;1.86;100.00;99715.94;6305660;20;3624317;-45
2023/12/31 03:58:42;;;;;;;;;87.33;66.00;;;;;2.02;100.00;99708.47;6306397;20;3636732;-45
2023/12/31 04:01:12;;;;;;;;;88.67;65.00;;;;;1.91;100.00;99714.91;6307272;20;3653439;-44
2023/12/31 04:03:42;;;;;;;;;88.67;67.00;;;;;1.93;100.00;99710.44;6306926;20;3644086;-45
2023/12/31 04:06:11;;;;;;;;;87.00;67.67;;;;;2.06;100.00;99712.78;6302824;20;3637792;-46
2023/12/31 04:08:41;;;;;;;;;84.67;66.67;;;;;1.83;100.00;99706.31;6305481;20;3647250;-46
2023/12/31 04:11:11;;;;;;;;;90.00;67.67;;;;;2.36;100.00;99709.28;6306070;20;3657578;-44
2023/12/31 04:13:41;;;;;;;;;89.67;64.67;;;;;2.11;100.00;99703.81;6271027;20;3656577;-46
2023/12/31 04:16:11;;;;;;;;;91.67;65.00;;;;;1.88;100.00;99701.75;6270135;20;3657569;-45
2023/12/31 04:18:40;;;;;;;;;82.00;64.00;;;;;1.65;100.00;99704.97;6307617;20;2879617;-45
2023/12/31 04:21:10;;;;;;;;;88.00;68.00;;;;;1.96;100.00;99699.78;6305927;20;3645067;-46
2023/12/31 04:23:40;;;;;;;;;90.00;68.33;;;;;2.03;100.00;99703.16;6306039;20;3650247;-46
2023/12/31 04:26:10;;;;;;;;;88.33;65.00;;;;;1.70;100.00;99697.78;6305805;20;3645099;-46
2023/12/31 04:28:39;;;;;;;;;87.67;67.67;;;;;1.99;100.00;99696.19;6307783;20;2879467;-46
2023/12/31 04:31:09;;;;;;;;;90.00;68.00;;;;;1.64;100.00;99695.31;6306276;20;3646079;-47
2023/12/31 04:33:38;;;;;;;;;84.00;67.00;;;;;2.27;100.00;99690.16;6306594;20;2887865;-46
2023/12/31 04:36:08;;;;;;;;;84.33;64.67;;;;;1.67;100.00;99692.59;6303988;20;3639002;-45
2023/12/31 04:38:38;;;;;;;;;86.00;67.67;;;;;1.72;100.00;99698.63;6305040;20;3634729;-47
2023/12/31 04:41:07;;;;;;;;;90.33;67.67;;;;;1.50;100.00;99700.06;6303630;20;3660690;-47
2023/12/31 04:43:37;;;;;;;;;96.33;69.67;;;;;1.22;100.00;99694.59;6304654;20;3662894;-45
2023/12/31 04:46:06;;;;;;;;;91.00;68.67;;;;;1.42;100.00;99691.44;6306002;20;3646089;-47
2023/12/31 04:48:37;;;;;;;;;89.33;68.67;;;;;0.96;100.00;99697.81;6306604;20;3637719;-47
2023/12/31 04:51:06;;;;;;;;;93.33;69.33;;;;;0.91;100.00;99695.28;6307594;20;3649218;-45
2023/12/31 04:53:37;;;;;;;;;90.33;67.67;;;;;0.65;100.00;99694.06;6305490;20;3646178;-46
2023/12/31 04:56:19;;;;;;;;;87.33;65.33;;;;;0.77;100.00;99686.78;6305493;20;3657634;-46
2023/12/31 04:58:51;;;;;;;;;87.67;66.33;;;;;0.82;100.00;99700.78;6305348;20;3640855;-47
2023/12/31 05:01:22;;;;;;;;;92.00;67.00;;;;;0.94;100.00;99703.13;6301621;20;3665994;-45
2023/12/31 05:03:52;;;;;;;;;85.67;61.00;;;;;0.84;100.00;99704.22;6302763;20;3654542;-46
2023/12/31 05:06:22;;;;;;;;;86.67;66.33;;;;;0.67;100.00;99701.09;6304506;20;3652368;-45
2023/12/31 05:08:52;;;;;;;;;89.67;64.33;;;;;0.33;100.00;99696.50;6307301;20;3662771;-50
2023/12/31 05:11:26;;;;;;;;;81.67;64.67;;;;;0.79;100.00;99700.81;6303852;20;2872358;-47
2023/12/31 05:13:56;;;;;;;;;91.00;66.00;;;;;0.94;100.00;99696.97;6310955;20;3652365;-43
2023/12/31 05:16:31;;;;;;;;;86.67;64.67;;;;;1.14;100.00;99696.53;6308477;20;3659705;-45
2023/12/31 05:19:01;;;;;;;;;88.00;68.67;;;;;1.11;100.00;99692.19;6309635;20;2881555;-46
2023/12/31 05:21:31;;;;;;;;;99.00;71.33;;;;;1.04;100.00;99694.09;6310219;20;3670242;-47
2023/12/31 05:24:01;;;;;;;;;96.33;72.33;;;;;1.06;100.00;99702.88;6276315;20;3657005;-48
2023/12/31 05:26:30;;;;;;;;;98.00;73.67;;;;;1.43;100.00;99709.06;6311703;20;3643087;-48
2023/12/31 05:29:00;;;;;;;;;99.33;72.33;;;;;1.42;100.00;99700.28;6309498;20;3668038;-48
2023/12/31 05:31:30;;;;;;;;;102.33;81.67;;;;;1.22;100.00;99705.16;6311074;20;3696106;-48
2023/12/31 05:34:00;;;;;;;;;101.33;79.67;;;;;1.18;100.00;99714.06;6273678;20;3680596;-48
2023/12/31 05:36:29;;;;;;;;;95.33;74.67;;;;;1.20;100.00;99706.97;6276099;20;3648179;-46
2023/12/31 05:38:59;;;;;;;;;99.00;76.33;;;;;1.00;100.00;99704.75;6311356;20;3648134;-46
2023/12/31 05:41:29;;;;;;;;;102.00;78.00;;;;;1.07;100.00;99709.03;6311011;20;3675225;-47
2023/12/31 05:43:58;;;;;;;;;101.33;77.33;;;;;1.03;100.00;99715.28;6311089;20;3692952;-47
2023/12/31 05:46:28;;;;;;;;;101.67;80.33;;;;;1.60;100.00;99713.94;6274702;20;3689908;-47
2023/12/31 05:48:59;;;;;;;;;98.33;71.67;;;;;1.36;100.00;99716.28;6309281;20;3660695;-47
2023/12/31 05:51:29;;;;;;;;;101.00;71.33;;;;;1.20;100.00;99707.81;6311774;20;3671059;-46
2023/12/31 05:53:58;;;;;;;;;98.33;74.33;;;;;0.88;100.00;99706.78;6279705;20;3651355;-47
2023/12/31 05:56:29;;;;;;;;;106.00;82.00;;;;;1.01;100.00;99702.09;6310114;20;3686696;-48
2023/12/31 05:58:58;;;;;;;;;103.67;84.33;;;;;1.70;100.00;99710.16;6276594;20;3698178;-47
2023/12/31 06:01:28;;;;;;;;;107.00;88.33;;;;;1.53;100.00;99708.81;6274406;20;3694056;-47
2023/12/31 06:03:58;;;;;;;;;101.67;80.00;;;;;1.77;100.00;99708.25;6278677;20;3691951;-47
2023/12/31 06:06:33;;;;;;;;;111.00;92.33;;;;;1.57;100.00;99711.38;6276018;20;3698160;-47
2023/12/31 06:09:03;;;;;;;;;106.67;90.67;;;;;1.53;100.00;99711.47;6280041;20;3699232;-46
2023/12/31 06:11:32;;;;;;;;;104.00;79.67;;;;;1.48;100.00;99705.41;6274912;20;3686801;-48
2023/12/31 06:14:02;;;;;;;;;108.00;84.67;;;;;1.56;100.00;99704.38;6273961;20;3694015;-46
2023/12/31 06:16:32;;;;;;;;;108.00;87.33;;;;;1.15;100.00;99708.84;6273053;20;3698305;-46
2023/12/31 06:19:02;;;;;;;;;111.33;89.00;;;;;1.34;100.00;99710.16;6275758;20;3699286;-48
2023/12/31 06:21:32;;;;;;;;;113.67;99.00;;;;;0.89;100.00;99718.22;6278287;20;3681576;-46
2023/12/31 06:24:02;;;;;;;;;152.50;124.50;;;;;0.36;100.00;99712.28;6271640;20;3716942;-46
2023/12/31 06:26:33;;;;;;;;;147.75;117.25;;;;;0.34;100.00;99703.50;6274295;20;4484628;-46
2023/12/31 06:29:02;;;;;;;;;108.33;81.67;;;;;1.01;100.00;99707.38;6275890;20;3683642;-46
2023/12/31 06:31:32;;;;;;;;;95.67;73.33;;;;;0.71;100.00;99703.66;6278487;20;3643018;-47
2023/12/31 06:34:03;;;;;;;;;99.67;73.67;;;;;0.53;100.00;99707.53;6306890;20;3675328;-46
2023/12/31 06:36:32;;;;;;;;;97.67;73.00;;;;;0.55;100.00;99700.44;6275176;20;3640904;-47
2023/12/31 06:39:02;;;;;;;;;99.33;69.67;;;;;0.47;100.00;99707.66;6306850;20;3671202;-52
2023/12/31 06:41:33;;;;;;;;;96.00;72.33;;;;;0.29;100.00;99700.97;6307833;20;3650309;-49
2023/12/31 06:44:03;;;;;;;;;100.00;78.33;;;;;0.53;100.00;99704.91;6306755;20;3660790;-52
2023/12/31 06:46:33;;;;;;;;;98.00;77.00;;;;;0.62;100.00;99707.34;6273194;20;3655575;-51
2023/12/31 06:49:03;;;;;;;;;112.25;84.50;;;;;0.99;100.00;99714.47;6308483;20;3699271;-48
2023/12/31 06:51:31;;;;;;;;;104.00;84.50;;;;;0.83;100.00;99703.38;6302042;20;2566982;-47
2023/12/31 06:54:01;;;;;;;;;97.67;72.33;;;;;0.59;100.00;99703.91;6275439;20;3645224;-51
2023/12/31 06:56:31;;;;;;;;;104.33;78.00;;;;;0.73;100.00;99701.81;6306762;20;3677444;-47
2023/12/31 06:59:01;;;;;;;;;101.00;77.67;;;;;0.28;100.00;99691.31;6273716;20;3672224;-49
2023/12/31 07:01:30;;;;;;;;;101.33;74.33;;;;;-0.02;100.00;99687.50;6275525;20;3673201;-48
2023/12/31 07:04:00;;;;;;;;;100.33;71.67;;;;;0.27;100.00;99697.50;6275311;20;3653982;-47
2023/12/31 07:06:30;;;;;;;;;104.33;75.67;;;;;0.36;100.00;99697.28;6303944;20;3684615;-47
2023/12/31 07:09:00;;;;;;;;;80.33;62.00;;;;;0.26;100.00;99698.38;6274634;20;2882652;-47
2023/12/31 07:11:29;;;;;;;;;87.00;64.67;;;;;1.05;100.00;99701.13;6305896;20;3649207;-50
2023/12/31 07:13:59;;;;;;;;;97.33;68.33;;;;;1.26;100.00;99706.81;6308845;20;3651381;-48
2023/12/31 07:16:29;;;;;;;;;91.00;63.33;;;;;1.36;100.00;99703.06;6306961;20;3656488;-47
2023/12/31 07:18:59;;;;;;;;;94.67;73.00;;;;;1.18;100.00;99707.00;6308403;20;3634599;-48
2023/12/31 07:21:29;;;;;;;;;108.33;88.00;;;;;1.73;100.00;99708.31;6308126;20;3693326;-47
2023/12/31 07:23:59;;;;;;;;;132.00;100.00;;;;;1.76;100.00;99702.06;6271879;20;3707544;-49
2023/12/31 07:26:29;;;;;;;;;103.00;82.67;;;;;1.81;100.00;99705.47;6275426;20;3682614;-45
2023/12/31 07:28:59;;;;;;;;;103.33;84.33;;;;;1.34;100.00;99698.69;6272332;20;3700288;-48
2023/12/31 07:31:39;;;;;;;;;100.00;78.67;;;;;1.30;100.00;99703.22;6274844;20;3698149;-44
2023/12/31 07:34:09;;;;;;;;;100.33;77.33;;;;;1.97;100.00;99701.53;6269505;20;3688800;-46
2023/12/31 07:36:40;;;;;;;;;145.00;118.75;;;;;1.93;100.00;99714.88;6276274;20;4496041;-47
2023/12/31 07:39:09;;;;;;;;;108.00;93.67;;;;;1.75;100.00;99702.97;6275388;20;3677739;-46
2023/12/31 07:41:39;;;;;;;;;102.00;79.67;;;;;1.27;100.00;99698.84;6277782;20;3691904;-47
2023/12/31 07:44:09;;;;;;;;;133.33;105.33;;;;;1.98;100.00;99703.25;6274032;20;3720110;-47
2023/12/31 07:46:39;;;;;;;;;122.00;98.33;;;;;1.93;100.00;99702.50;6277148;20;3701344;-49
2023/12/31 07:49:09;;;;;;;;;146.00;114.25;;;;;2.25;100.00;99697.25;6276243;20;4488850;-48
2023/12/31 07:51:39;;;;;;;;;123.67;95.67;;;;;2.37;100.00;99700.44;6273753;20;3688787;-47
2023/12/31 07:54:09;;;;;;;;;110.33;88.33;;;;;1.78;100.00;99705.53;6275512;20;3697189;-50
2023/12/31 07:56:41;;;;;;;;;117.00;94.00;;;;;1.70;100.00;99710.16;6273315;20;3705468;-46
2023/12/31 07:59:11;;;;;;;;;174.50;136.75;;;;;1.28;100.00;99705.88;6270459;20;4495076;-50
2023/12/31 08:01:42;;;;;;;;;205.50;163.75;;;;;1.05;100.00;99701.13;6275273;20;4481570;-47
2023/12/31 08:04:12;;;;;;;;;127.67;100.67;;;;;1.01;100.00;99696.81;6261844;20;3705590;-48
2023/12/31 08:06:42;;;;;;;;;98.33;74.33;;;;;1.14;100.00;99707.97;6271418;20;3667687;-45
2023/12/31 08:09:15;;;;;;;;;101.00;79.33;;;;;1.02;100.00;99709.09;6304332;20;3681576;-46
2023/12/31 08:11:45;;;;;;;;;143.00;113.00;;;;;1.26;100.00;99704.16;6271919;20;4479488;-50
2023/12/31 08:14:15;;;;;;;;;102.67;76.67;;;;;1.87;100.00;99710.63;6305387;20;3692063;-48
2023/12/31 08:16:45;;;;;;;;;103.00;82.33;;;;;1.14;100.00;99709.75;6271125;20;3690918;-47
2023/12/31 08:19:15;;;;;;;;;108.67;83.00;;;;;1.44;100.00;99710.81;6270640;20;3697169;-47
2023/12/31 08:21:45;;;;;;;;;101.00;72.67;;;;;1.33;100.00;99713.72;6272193;20;3674323;-49
2023/12/31 08:24:20;;;;;;;;;95.00;71.00;;;;;1.62;100.00;99720.06;6304736;20;3640476;-48
2023/12/31 08:26:51;;;;;;;;;103.00;80.33;;;;;1.61;100.00;99719.22;6304886;20;3691983;-47
2023/12/31 08:29:21;;;;;;;;;107.67;84.67;;;;;2.10;100.00;99711.78;6267564;20;3685787;-48
2023/12/31 08:31:52;;;;;;;;;100.00;73.33;;;;;1.89;100.00;99719.38;6269225;20;3677348;-49
2023/12/31 08:34:20;;;;;;;;;156.00;118.00;;;;;2.31;100.00;99715.63;6262643;20;1953586;-48
2023/12/31 08:36:52;;;;;;;;;151.50;121.50;;;;;2.34;100.00;99724.38;6271623;20;4480428;-45
2023/12/31 08:39:22;;;;;;;;;101.00;74.00;;;;;2.17;100.00;99718.66;6270242;20;3686817;-46
2023/12/31 08:41:52;;;;;;;;;98.67;78.67;;;;;2.22;100.00;99724.69;6268527;20;3681501;-50
2023/12/31 08:44:22;;;;;;;;;98.33;70.00;;;;;2.24;100.00;99725.53;6270962;20;3672161;-46
2023/12/31 08:46:52;;;;;;;;;137.00;109.25;;;;;2.33;100.00;99724.41;6270268;20;4495028;-47
2023/12/31 08:49:24;;;;;;;;;110.33;85.33;;;;;1.99;100.00;99720.00;6268828;20;3694080;-46
2023/12/31 08:51:55;;;;;;;;;106.75;76.75;;;;;2.18;100.00;99725.69;6267353;20;3702395;-46
2023/12/31 08:54:25;;;;;;;;;104.67;78.67;;;;;2.61;100.00;99727.16;6263998;20;3685891;-48
2023/12/31 08:56:55;;;;;;;;;98.67;75.33;;;;;2.43;100.00;99715.31;6267392;20;3665947;-46
2023/12/31 08:59:24;;;;;;;;;95.67;71.67;;;;;2.50;100.00;99726.56;6263520;20;3655552;-46
2023/12/31 09:01:54;;;;;;;;;90.67;65.00;;;;;2.26;100.00;99712.22;6267944;20;3636761;-47
2023/12/31 09:04:28;;;;;;;;;97.00;71.00;;;;;2.64;100.00;99717.34;6301941;20;3660732;-47
2023/12/31 09:06:58;;;;;;;;;106.67;79.33;;;;;2.97;100.00;99713.72;6269434;20;3698195;-46
2023/12/31 09:09:27;;;;;;;;;104.33;74.00;;;;;2.57;100.00;99712.25;6268130;20;3687800;-48
2023/12/31 09:11:57;;;;;;;;;102.00;79.00;;;;;2.96;100.00;99702.25;6269602;20;3681576;-46
2023/12/31 09:14:27;;;;;;;;;107.33;84.67;;;;;2.85;100.00;99705.22;6270477;20;3695222;-50
2023/12/31 09:16:57;;;;;;;;;91.67;69.33;;;;;2.60;100.00;99697.13;6270624;20;3647221;-49
2023/12/31 09:19:26;;;;;;;;;96.67;72.33;;;;;2.97;100.00;99697.81;6302082;20;3667959;-49
2023/12/31 09:21:56;;;;;;;;;95.33;71.33;;;;;2.89;100.00;99697.19;6271718;20;3665914;-49
2023/12/31 09:24:26;;;;;;;;;98.00;74.67;;;;;3.04;100.00;99691.41;6303695;20;3672156;-49
2023/12/31 09:26:56;;;;;;;;;92.67;68.67;;;;;3.22;100.00;99697.94;6271504;20;3668010;-56
2023/12/31 09:29:25;;;;;;;;;101.00;86.67;;;;;2.68;100.00;99694.25;6268809;20;3670121;-47
2023/12/31 09:31:55;;;;;;;;;115.67;90.00;;;;;3.34;100.00;99694.03;6270032;20;3690905;-49
2023/12/31 09:34:25;;;;;;;;;93.33;72.67;;;;;3.57;100.00;99687.97;6267098;20;3676456;-47
2023/12/31 09:36:55;;;;;;;;;96.33;76.67;;;;;2.91;100.00;99676.81;6272608;20;3691968;-57
2023/12/31 09:39:24;;;;;;;;;109.33;84.00;;;;;3.43;100.00;99689.28;6270949;20;3705611;-49
2023/12/31 09:42:03;;;;;;;;;96.00;76.00;;;;;3.37;100.00;99678.88;6268907;20;3684750;-52
2023/12/31 09:44:33;;;;;;;;;100.00;76.33;;;;;3.27;100.00;99686.28;6266763;20;3695242;-49
2023/12/31 09:47:11;;;;;;;;;104.00;93.00;;;;;3.26;100.00;99688.94;6268726;20;3684656;-51
2023/12/31 09:49:43;;;;;;;;;100.00;76.25;;;;;3.50;100.00;99687.28;6270594;20;4451255;-50
2023/12/31 09:52:13;;;;;;;;;93.33;72.33;;;;;3.23;100.00;99699.66;6299433;20;3661812;-49
2023/12/31 09:54:43;;;;;;;;;86.00;65.00;;;;;3.41;100.00;99675.19;6266454;20;3655489;-49
2023/12/31 09:57:16;;;;;;;;;92.00;70.67;;;;;3.42;100.00;99676.97;6300444;20;3660700;-48
2023/12/31 09:59:48;;;;;;;;;93.67;71.33;;;;;3.87;100.00;99675.44;6268153;20;3668106;-50
2023/12/31 10:02:22;;;;;;;;;95.00;71.67;;;;;3.85;100.00;99678.16;6271981;20;3674222;-49
2023/12/31 10:04:52;;;;;;;;;93.00;77.67;;;;;3.54;100.00;99662.41;6273432;20;3666983;-49
2023/12/31 10:07:22;;;;;;;;;98.67;76.33;;;;;3.92;100.00;99657.56;6276550;20;3682559;-48
2023/12/31 10:09:54;;;;;;;;;97.00;84.33;;;;;4.04;100.00;99651.81;6273515;20;3667050;-50
2023/12/31 10:12:24;;;;;;;;;93.00;72.00;;;;;3.66;100.00;99638.09;6276927;20;3672651;-45
2023/12/31 10:14:54;;;;;;;;;97.33;77.00;;;;;3.69;100.00;99638.00;6274085;20;3686783;-46
2023/12/31 10:17:26;;;;;;;;;93.33;69.33;;;;;3.30;100.00;99641.06;6271899;20;3671259;-48
2023/12/31 10:19:59;;;;;;;;;96.00;78.00;;;;;3.84;100.00;99633.91;6275604;20;3679521;-47
2023/12/31 10:22:35;;;;;;;;;100.67;82.00;;;;;3.48;100.00;99644.03;6276924;20;3696097;-50
2023/12/31 10:25:14;;;;;;;;;94.00;71.33;;;;;3.29;100.00;99627.81;6275816;20;3659683;-47
2023/12/31 10:27:48;;;;;;;;;91.67;71.33;;;;;3.58;100.00;99631.28;6308446;20;3673197;-46
2023/12/31 10:30:20;;;;;;;;;103.00;84.00;;;;;3.58;100.00;99618.91;6274934;20;3689845;-48
2023/12/31 10:32:50;;;;;;;;;99.33;77.67;;;;;3.65;100.00;99617.75;6277489;20;3687745;-48
2023/12/31 10:35:21;;;;;;;;;105.33;82.00;;;;;3.67;100.00;99613.28;6274332;20;3693999;-47
2023/12/31 10:38:07;;;;;;;;;101.67;88.00;;;;;3.73;100.00;99613.06;6273785;20;3680523;-51
2023/12/31 10:40:37;;;;;;;;;94.33;76.33;;;;;3.65;100.00;99615.09;6275051;20;3661777;-46
2023/12/31 10:43:08;;;;;;;;;96.00;74.67;;;;;3.87;100.00;99601.97;6274451;20;3682601;-46
2023/12/31 10:45:39;;;;;;;;;96.33;75.67;;;;;4.04;100.00;99593.38;6271000;20;3673203;-46
2023/12/31 10:48:12;;;;;;;;;99.00;76.33;;;;;3.83;100.00;99586.19;6268518;20;3681490;-47
2023/12/31 10:50:50;;;;;;;;;99.33;72.67;;;;;4.03;100.00;99583.69;6272523;20;3690872;-47
2023/12/31 10:53:22;;;;;;;;;90.67;68.67;;;;;3.86;100.00;99586.06;6272633;20;3658749;-47
2023/12/31 10:55:54;;;;;;;;;82.33;62.00;;;;;3.56;100.00;99578.28;6304758;20;3637781;-48
2023/12/31 10:58:25;;;;;;;;;91.00;65.67;;;;;3.71;100.00;99577.75;6303571;20;3650274;-52
2023/12/31 11:00:56;;;;;;;;;88.00;67.00;;;;;3.66;100.00;99579.69;6304006;20;3648228;-50
2023/12/31 11:03:29;;;;;;;;;92.67;70.33;;;;;3.68;100.00;99566.34;6305750;20;3661748;-50
2023/12/31 11:06:01;;;;;;;;;97.33;77.00;;;;;3.87;100.00;99543.53;6268897;20;3675374;-52
2023/12/31 11:08:32;;;;;;;;;92.00;70.67;;;;;3.53;100.00;99546.53;6272134;20;3670069;-55
2023/12/31 11:11:03;;;;;;;;;93.67;68.33;;;;;3.26;100.00;99545.69;6269890;20;3657535;-46